Terminal Aerodrome Forecast
Issued by NWS

Home | Current Version | Previous Version | Text Only | Print | Product List | Glossary On
Versions: 1 2 3 4 5 6 7 8 9 10 11 12 13 14 15 16 17 18 19 20 21 22 23 24 25 26 27 28 29 30 31 32 33 34 35 36
000
FTUS45 KGGW 102320
TAFOLF
TAF
KOLF 102320Z 1100/1124 07009KT 1SM -SN OVC015
      TEMPO 1100/1103 1/2SM SN OVC010
     FM110600 06006KT 4SM -SN OVC015
     FM111000 00000KT P6SM BKN015
     FM111200 27004KT P6SM BKN020
     FM111800 25004KT P6SM BKN035=

USA.gov is the U.S. government's official web portal to all federal, state and local government web resources and services.